sensor_id;sensor_type;location;lat;lon;timestamp;pressure;altitude;pressure_sealevel;temperature;humidity
74680;BME280;63211;48.548;2.704;2023-05-10T00:01:38;100563.28;;;18.66;69.98
74680;BME280;63211;48.548;2.704;2023-05-10T00:04:05;100562.22;;;18.67;70.11
74680;BME280;63211;48.548;2.704;2023-05-10T00:06:32;100562.47;;;18.65;69.91
74680;BME280;63211;48.548;2.704;2023-05-10T00:08:59;100559.72;;;18.65;70.19
74680;BME280;63211;48.548;2.704;2023-05-10T00:11:26;100558.91;;;18.65;69.75
74680;BME280;63211;48.548;2.704;2023-05-10T00:13:54;100547.16;;;18.64;69.83
74680;BME280;63211;48.548;2.704;2023-05-10T00:16:20;100565.19;;;18.65;69.68
74680;BME280;63211;48.548;2.704;2023-05-10T00:18:47;100559.97;;;18.64;70.03
74680;BME280;63211;48.548;2.704;2023-05-10T00:21:13;100567.31;;;18.63;69.78
74680;BME280;63211;48.548;2.704;2023-05-10T00:23:40;100568.16;;;18.64;69.54
74680;BME280;63211;48.548;2.704;2023-05-10T00:26:07;100567.53;;;18.62;69.88
74680;BME280;63211;48.548;2.704;2023-05-10T00:28:33;100572.75;;;18.63;69.68
74680;BME280;63211;48.548;2.704;2023-05-10T00:31:01;100572.75;;;18.63;69.51
74680;BME280;63211;48.548;2.704;2023-05-10T00:33:28;100574.88;;;18.61;69.86
74680;BME280;63211;48.548;2.704;2023-05-10T00:35:54;100573.22;;;18.60;69.62
74680;BME280;63211;48.548;2.704;2023-05-10T00:38:21;100577.38;;;18.63;69.59
74680;BME280;63211;48.548;2.704;2023-05-10T00:40:47;100577.00;;;18.59;69.65
74680;BME280;63211;48.548;2.704;2023-05-10T00:43:14;100573.00;;;18.62;69.64
74680;BME280;63211;48.548;2.704;2023-05-10T00:45:41;100568.59;;;18.61;69.83
74680;BME280;63211;48.548;2.704;2023-05-10T00:48:09;100573.22;;;18.60;69.62
74680;BME280;63211;48.548;2.704;2023-05-10T00:50:35;100574.28;;;18.59;69.53
74680;BME280;63211;48.548;2.704;2023-05-10T00:53:02;100581.19;;;18.62;69.55
74680;BME280;63211;48.548;2.704;2023-05-10T00:55:29;100579.50;;;18.61;69.51
74680;BME280;63211;48.548;2.704;2023-05-10T00:57:56;100581.59;;;18.59;69.46
74680;BME280;63211;48.548;2.704;2023-05-10T01:00:23;100586.84;;;18.60;69.30
74680;BME280;63211;48.548;2.704;2023-05-10T01:02:50;100579.09;;;18.57;69.63
74680;BME280;63211;48.548;2.704;2023-05-10T01:05:19;100589.78;;;18.59;69.41
74680;BME280;63211;48.548;2.704;2023-05-10T01:07:46;100590.84;;;18.58;69.43
74680;BME280;63211;48.548;2.704;2023-05-10T01:10:13;100592.97;;;18.55;69.38
74680;BME280;63211;48.548;2.704;2023-05-10T01:12:43;100590.34;;;18.49;69.19
74680;BME280;63211;48.548;2.704;2023-05-10T01:15:12;100598.63;;;18.54;69.23
74680;BME280;63211;48.548;2.704;2023-05-10T01:17:40;100601.75;;;18.58;69.11
74680;BME280;63211;48.548;2.704;2023-05-10T01:20:10;100596.75;;;18.54;69.17
74680;BME280;63211;48.548;2.704;2023-05-10T01:22:53;100600.31;;;18.55;69.18
74680;BME280;63211;48.548;2.704;2023-05-10T01:25:32;100590.91;;;18.51;69.09
74680;BME280;63211;48.548;2.704;2023-05-10T01:31:22;100587.13;;;18.52;69.09
74680;BME280;63211;48.548;2.704;2023-05-10T01:33:59;100595.47;;;18.57;68.31
74680;BME280;63211;48.548;2.704;2023-05-10T01:36:31;100581.44;;;18.53;68.16
74680;BME280;63211;48.548;2.704;2023-05-10T01:39:02;100583.56;;;18.51;68.41
74680;BME280;63211;48.548;2.704;2023-05-10T01:41:49;100586.41;;;18.63;67.79
74680;BME280;63211;48.548;2.704;2023-05-10T01:44:24;100582.63;;;18.64;68.05
74680;BME280;63211;48.548;2.704;2023-05-10T01:47:01;100591.84;;;18.63;68.15
74680;BME280;63211;48.548;2.704;2023-05-10T01:49:35;100585.78;;;18.61;68.49
74680;BME280;63211;48.548;2.704;2023-05-10T01:52:06;100577.53;;;18.49;68.48
74680;BME280;63211;48.548;2.704;2023-05-10T01:54:35;100599.03;;;18.58;69.02
74680;BME280;63211;48.548;2.704;2023-05-10T01:57:06;100593.56;;;18.58;69.05
74680;BME280;63211;48.548;2.704;2023-05-10T01:59:37;100595.47;;;18.57;68.86
74680;BME280;63211;48.548;2.704;2023-05-10T02:02:06;100595.91;;;18.54;69.05
74680;BME280;63211;48.548;2.704;2023-05-10T02:04:39;100602.44;;;18.53;68.96
74680;BME280;63211;48.548;2.704;2023-05-10T02:07:06;100610.38;;;18.54;68.77
74680;BME280;63211;48.548;2.704;2023-05-10T02:09:34;100603.47;;;18.52;69.10
74680;BME280;63211;48.548;2.704;2023-05-10T02:12:02;100600.25;;;18.43;69.05
74680;BME280;63211;48.548;2.704;2023-05-10T02:14:32;100608.34;;;18.50;68.99
74680;BME280;63211;48.548;2.704;2023-05-10T02:17:02;100608.09;;;18.51;68.77
74680;BME280;63211;48.548;2.704;2023-05-10T02:19:31;100603.47;;;18.52;68.80
74680;BME280;63211;48.548;2.704;2023-05-10T02:22:00;100610.38;;;18.54;68.57
74680;BME280;63211;48.548;2.704;2023-05-10T02:24:28;100614.53;;;18.57;68.71
74680;BME280;63211;48.548;2.704;2023-05-10T02:26:56;100608.72;;;18.53;68.71
74680;BME280;63211;48.548;2.704;2023-05-10T02:29:24;100619.84;;;18.52;68.48
74680;BME280;63211;48.548;2.704;2023-05-10T02:31:52;100606.91;;;18.47;68.59
74680;BME280;63211;48.548;2.704;2023-05-10T02:34:21;100599.56;;;18.48;68.29
74680;BME280;63211;48.548;2.704;2023-05-10T02:36:49;100610.25;;;18.49;68.35
74680;BME280;63211;48.548;2.704;2023-05-10T02:39:19;100610.25;;;18.49;68.62
74680;BME280;63211;48.548;2.704;2023-05-10T02:41:48;100615.44;;;18.51;68.47
74680;BME280;63211;48.548;2.704;2023-05-10T02:44:17;100611.06;;;18.50;68.49
74680;BME280;63211;48.548;2.704;2023-05-10T02:46:45;100613.56;;;18.51;68.20
74680;BME280;63211;48.548;2.704;2023-05-10T02:49:12;100608.94;;;18.52;68.03
74680;BME280;63211;48.548;2.704;2023-05-10T02:51:41;100611.31;;;18.48;68.35
74680;BME280;63211;48.548;2.704;2023-05-10T02:54:12;100609.88;;;18.46;68.35
74680;BME280;63211;48.548;2.704;2023-05-10T02:56:44;100611.75;;;18.45;68.50
74680;BME280;63211;48.548;2.704;2023-05-10T02:59:13;100606.53;;;18.44;68.37
74680;BME280;63211;48.548;2.704;2023-05-10T03:01:40;100595.69;;;18.37;68.10
74680;BME280;63211;48.548;2.704;2023-05-10T03:04:07;100611.31;;;18.48;68.32
74680;BME280;63211;48.548;2.704;2023-05-10T03:06:33;100609.41;;;18.49;68.11
74680;BME280;63211;48.548;2.704;2023-05-10T03:09:01;100609.66;;;18.47;68.31
74680;BME280;63211;48.548;2.704;2023-05-10T03:11:39;100615.09;;;18.47;68.22
74680;BME280;63211;48.548;2.704;2023-05-10T03:14:20;100581.91;;;18.32;68.09
74680;BME280;63211;48.548;2.704;2023-05-10T03:16:56;100594.19;;;18.41;68.02
74680;BME280;63211;48.548;2.704;2023-05-10T03:19:27;100601.09;;;18.44;67.99
74680;BME280;63211;48.548;2.704;2023-05-10T03:21:59;100592.97;;;18.37;67.87
74680;BME280;63211;48.548;2.704;2023-05-10T03:24:27;100596.91;;;18.41;68.05
74680;BME280;63211;48.548;2.704;2023-05-10T03:26:55;100588.97;;;18.40;67.98
74680;BME280;63211;48.548;2.704;2023-05-10T03:29:26;100569.06;;;18.21;67.86
74680;BME280;63211;48.548;2.704;2023-05-10T03:31:53;100597.81;;;18.35;68.01
74680;BME280;63211;48.548;2.704;2023-05-10T03:34:23;100598.66;;;18.36;68.00
74680;BME280;63211;48.548;2.704;2023-05-10T03:36:49;100599.88;;;18.40;67.97
74680;BME280;63211;48.548;2.704;2023-05-10T03:39:16;100604.50;;;18.39;67.79
74680;BME280;63211;48.548;2.704;2023-05-10T03:41:43;100596.53;;;18.38;67.75
74680;BME280;63211;48.548;2.704;2023-05-10T03:44:09;100596.75;;;18.36;68.11
74680;BME280;63211;48.548;2.704;2023-05-10T03:46:37;100599.50;;;18.36;67.82
74680;BME280;63211;48.548;2.704;2023-05-10T03:49:04;100595.69;;;18.37;67.89
74680;BME280;63211;48.548;2.704;2023-05-10T03:51:30;100591.31;;;18.36;68.06
74680;BME280;63211;48.548;2.704;2023-05-10T03:53:57;100590.47;;;18.36;67.81
74680;BME280;63211;48.548;2.704;2023-05-10T03:56:24;100576.34;;;18.27;67.96
74680;BME280;63211;48.548;2.704;2023-05-10T03:58:50;100585.03;;;18.36;67.96
74680;BME280;63211;48.548;2.704;2023-05-10T04:01:17;100589.41;;;18.37;67.64
74680;BME280;63211;48.548;2.704;2023-05-10T04:03:45;100586.09;;;18.35;67.98
74680;BME280;63211;48.548;2.704;2023-05-10T04:06:11;100588.59;;;18.36;67.73
74680;BME280;63211;48.548;2.704;2023-05-10T04:08:38;100569.22;;;18.26;67.46
74680;BME280;63211;48.548;2.704;2023-05-10T04:11:05;100578.75;;;18.35;67.72
74680;BME280;63211;48.548;2.704;2023-05-10T04:13:32;100578.34;;;18.32;67.77
74680;BME280;63211;48.548;2.704;2023-05-10T04:15:59;100582.75;;;18.33;67.59
74680;BME280;63211;48.548;2.704;2023-05-10T04:18:26;100580.63;;;18.35;67.57
74680;BME280;63211;48.548;2.704;2023-05-10T04:20:54;100582.53;;;18.34;67.65
74680;BME280;63211;48.548;2.704;2023-05-10T04:23:20;100573.97;;;18.31;67.70
74680;BME280;63211;48.548;2.704;2023-05-10T04:25:47;100581.09;;;18.32;67.55
74680;BME280;63211;48.548;2.704;2023-05-10T04:28:14;100570.28;;;18.25;67.35
74680;BME280;63211;48.548;2.704;2023-05-10T04:30:40;100581.31;;;18.30;67.36
74680;BME280;63211;48.548;2.704;2023-05-10T04:33:07;100587.38;;;18.32;67.50
74680;BME280;63211;48.548;2.704;2023-05-10T04:35:34;100577.53;;;18.31;67.43
74680;BME280;63211;48.548;2.704;2023-05-10T04:38:02;100582.97;;;18.31;67.26
74680;BME280;63211;48.548;2.704;2023-05-10T04:40:29;100573.00;;;18.25;67.39
74680;BME280;63211;48.548;2.704;2023-05-10T04:42:55;100579.41;;;18.31;67.37
74680;BME280;63211;48.548;2.704;2023-05-10T04:45:22;100580.25;;;18.31;67.39
74680;BME280;63211;48.548;2.704;2023-05-10T04:47:48;100579.19;;;18.32;67.39
74680;BME280;63211;48.548;2.704;2023-05-10T04:50:15;100578.59;;;18.30;67.06
74680;BME280;63211;48.548;2.704;2023-05-10T04:52:42;100548.84;;;18.10;67.25
74680;BME280;63211;48.548;2.704;2023-05-10T04:55:10;100574.19;;;18.29;67.31
74680;BME280;63211;48.548;2.704;2023-05-10T04:57:37;100584.28;;;18.29;67.59
74680;BME280;63211;48.548;2.704;2023-05-10T05:00:04;100578.25;;;18.27;67.12
74680;BME280;63211;48.548;2.704;2023-05-10T05:02:31;100576.69;;;18.31;66.99
74680;BME280;63211;48.548;2.704;2023-05-10T05:04:58;100578.13;;;18.33;67.04
74680;BME280;63211;48.548;2.704;2023-05-10T05:07:24;100566.38;;;18.51;66.02
74680;BME280;63211;48.548;2.704;2023-05-10T05:09:51;100571.09;;;18.62;65.39
74680;BME280;63211;48.548;2.704;2023-05-10T05:12:19;100575.25;;;18.65;65.35
74680;BME280;63211;48.548;2.704;2023-05-10T05:14:45;100576.09;;;18.65;65.13
74680;BME280;63211;48.548;2.704;2023-05-10T05:17:12;100584.28;;;18.65;65.14
74680;BME280;63211;48.548;2.704;2023-05-10T05:19:39;100577.84;;;18.60;65.56
74680;BME280;63211;48.548;2.704;2023-05-10T05:22:06;100573.72;;;18.50;65.88
74680;BME280;63211;48.548;2.704;2023-05-10T05:24:35;100571.31;;;18.42;66.11
74680;BME280;63211;48.548;2.704;2023-05-10T05:27:03;100573.22;;;18.42;66.03
74680;BME280;63211;48.548;2.704;2023-05-10T05:29:31;100577.22;;;18.39;66.26
74680;BME280;63211;48.548;2.704;2023-05-10T05:31:57;100583.97;;;18.37;66.63
74680;BME280;63211;48.548;2.704;2023-05-10T05:34:24;100590.41;;;18.42;65.82
74680;BME280;63211;48.548;2.704;2023-05-10T05:36:51;100583.50;;;18.58;65.96
74680;BME280;63211;48.548;2.704;2023-05-10T05:39:17;100588.44;;;18.68;66.01
74680;BME280;63211;48.548;2.704;2023-05-10T05:41:44;100589.88;;;18.70;65.92
74680;BME280;63211;48.548;2.704;2023-05-10T05:44:11;100592.50;;;18.77;66.63
74680;BME280;63211;48.548;2.704;2023-05-10T05:46:39;100596.66;;;18.79;66.50
74680;BME280;63211;48.548;2.704;2023-05-10T05:49:05;100606.66;;;18.85;65.84
74680;BME280;63211;48.548;2.704;2023-05-10T05:51:32;100592.19;;;18.85;65.83
74680;BME280;63211;48.548;2.704;2023-05-10T05:53:59;100595.06;;;18.90;65.72
74680;BME280;63211;48.548;2.704;2023-05-10T05:56:26;100597.78;;;18.90;65.62
74680;BME280;63211;48.548;2.704;2023-05-10T05:58:53;100608.31;;;18.86;65.83
74680;BME280;63211;48.548;2.704;2023-05-10T06:01:20;100589.03;;;18.70;66.33
74680;BME280;63211;48.548;2.704;2023-05-10T06:03:48;100607.44;;;18.74;66.35
74680;BME280;63211;48.548;2.704;2023-05-10T06:06:14;100608.72;;;18.72;66.42
74680;BME280;63211;48.548;2.704;2023-05-10T06:08:41;100604.56;;;18.69;66.42
74680;BME280;63211;48.548;2.704;2023-05-10T06:11:08;100609.19;;;18.69;66.34
74680;BME280;63211;48.548;2.704;2023-05-10T06:13:34;100604.19;;;18.66;66.28
74680;BME280;63211;48.548;2.704;2023-05-10T06:16:02;100602.53;;;18.65;66.08
74680;BME280;63211;48.548;2.704;2023-05-10T06:18:28;100609.03;;;18.64;65.96
74680;BME280;63211;48.548;2.704;2023-05-10T06:20:56;100612.00;;;18.62;65.84
74680;BME280;63211;48.548;2.704;2023-05-10T06:23:23;100611.41;;;18.60;66.25
74680;BME280;63211;48.548;2.704;2023-05-10T06:25:51;100610.56;;;18.60;65.76
74680;BME280;63211;48.548;2.704;2023-05-10T06:28:17;100602.81;;;18.57;66.15
74680;BME280;63211;48.548;2.704;2023-05-10T06:30:44;100599.25;;;18.56;66.10
74680;BME280;63211;48.548;2.704;2023-05-10T06:33:10;100602.81;;;18.57;65.45
74680;BME280;63211;48.548;2.704;2023-05-10T06:35:37;100609.31;;;18.55;65.28
74680;BME280;63211;48.548;2.704;2023-05-10T06:38:05;100608.25;;;18.57;65.68
74680;BME280;63211;48.548;2.704;2023-05-10T06:40:32;100614.31;;;18.59;65.53
74680;BME280;63211;48.548;2.704;2023-05-10T06:42:58;100613.47;;;18.58;65.53
74680;BME280;63211;48.548;2.704;2023-05-10T06:45:25;100615.19;;;18.59;65.13
74680;BME280;63211;48.548;2.704;2023-05-10T06:47:51;100616.44;;;18.57;65.41
74680;BME280;63211;48.548;2.704;2023-05-10T06:50:18;100615.59;;;18.56;65.32
74680;BME280;63211;48.548;2.704;2023-05-10T06:52:45;100629.22;;;18.56;65.37
74680;BME280;63211;48.548;2.704;2023-05-10T06:55:12;100633.25;;;18.53;65.37
74680;BME280;63211;48.548;2.704;2023-05-10T06:57:39;100627.56;;;18.55;65.43
74680;BME280;63211;48.548;2.704;2023-05-10T07:00:07;100627.78;;;18.53;65.21
74680;BME280;63211;48.548;2.704;2023-05-10T07:02:34;100622.56;;;18.52;65.00
74680;BME280;63211;48.548;2.704;2023-05-10T07:05:01;100632.63;;;18.51;64.96
74680;BME280;63211;48.548;2.704;2023-05-10T07:07:28;100631.81;;;18.51;65.11
74680;BME280;63211;48.548;2.704;2023-05-10T07:09:55;100636.44;;;18.50;65.24
74680;BME280;63211;48.548;2.704;2023-05-10T07:12:24;100639.41;;;18.49;65.41
74680;BME280;63211;48.548;2.704;2023-05-10T07:14:50;100615.16;;;18.41;65.04
74680;BME280;63211;48.548;2.704;2023-05-10T07:17:17;100629.78;;;18.46;65.18
74680;BME280;63211;48.548;2.704;2023-05-10T07:19:44;100623.72;;;18.44;64.78
74680;BME280;63211;48.548;2.704;2023-05-10T07:22:10;100631.69;;;18.46;64.88
74680;BME280;63211;48.548;2.704;2023-05-10T07:24:38;100632.50;;;18.46;64.73
74680;BME280;63211;48.548;2.704;2023-05-10T07:27:04;100620.78;;;18.46;64.71
74680;BME280;63211;48.548;2.704;2023-05-10T07:29:32;100626.84;;;18.48;64.98
74680;BME280;63211;48.548;2.704;2023-05-10T07:31:59;100622.22;;;18.48;64.64
74680;BME280;63211;48.548;2.704;2023-05-10T07:34:26;100628.72;;;18.47;64.81
74680;BME280;63211;48.548;2.704;2023-05-10T07:36:53;100627.91;;;18.47;64.57
74680;BME280;63211;48.548;2.704;2023-05-10T07:39:20;100621.84;;;18.45;64.50
74680;BME280;63211;48.548;2.704;2023-05-10T07:41:46;100625.25;;;18.40;64.37
74680;BME280;63211;48.548;2.704;2023-05-10T07:44:13;100631.28;;;18.42;64.49
74680;BME280;63211;48.548;2.704;2023-05-10T07:46:41;100629.19;;;18.44;64.55
74680;BME280;63211;48.548;2.704;2023-05-10T07:49:07;100632.97;;;18.43;64.70
74680;BME280;63211;48.548;2.704;2023-05-10T07:51:34;100637.59;;;18.43;64.54
74680;BME280;63211;48.548;2.704;2023-05-10T07:54:01;100631.28;;;18.42;64.33
74680;BME280;63211;48.548;2.704;2023-05-10T07:56:29;100640.75;;;18.40;64.56
74680;BME280;63211;48.548;2.704;2023-05-10T07:58:58;100642.44;;;18.41;64.89
74680;BME280;63211;48.548;2.704;2023-05-10T08:01:25;100633.72;;;18.32;64.31
74680;BME280;63211;48.548;2.704;2023-05-10T08:03:53;100644.78;;;18.37;64.84
74680;BME280;63211;48.548;2.704;2023-05-10T08:06:20;100640.38;;;18.36;64.15
74680;BME280;63211;48.548;2.704;2023-05-10T08:08:47;100654.38;;;18.40;64.47
74680;BME280;63211;48.548;2.704;2023-05-10T08:11:16;100645.81;;;18.36;64.51
74680;BME280;63211;48.548;2.704;2023-05-10T08:13:42;100646.81;;;18.42;64.52
74680;BME280;63211;48.548;2.704;2023-05-10T08:16:09;100650.38;;;18.42;64.46
74680;BME280;63211;48.548;2.704;2023-05-10T08:18:36;100650.59;;;18.41;64.18
74680;BME280;63211;48.548;2.704;2023-05-10T08:21:04;100646.22;;;18.40;64.51
74680;BME280;63211;48.548;2.704;2023-05-10T08:23:31;100651.44;;;18.41;64.17
74680;BME280;63211;48.548;2.704;2023-05-10T08:25:57;100637.88;;;18.35;64.13
74680;BME280;63211;48.548;2.704;2023-05-10T08:28:24;100644.09;;;18.42;64.32
74680;BME280;63211;48.548;2.704;2023-05-10T08:30:50;100642.28;;;18.36;64.35
74680;BME280;63211;48.548;2.704;2023-05-10T08:33:17;100653.09;;;18.42;64.03
74680;BME280;63211;48.548;2.704;2023-05-10T08:35:44;100652.50;;;18.40;64.32
74680;BME280;63211;48.548;2.704;2023-05-10T08:38:12;100666.72;;;18.42;64.27
74680;BME280;63211;48.548;2.704;2023-05-10T08:40:41;100659.84;;;18.40;64.34
74680;BME280;63211;48.548;2.704;2023-05-10T08:43:09;100668.25;;;18.38;64.53
74680;BME280;63211;48.548;2.704;2023-05-10T08:45:37;100666.56;;;18.37;64.33
74680;BME280;63211;48.548;2.704;2023-05-10T08:48:06;100671.41;;;18.35;64.25
74680;BME280;63211;48.548;2.704;2023-05-10T08:50:36;100672.25;;;18.36;64.35
74680;BME280;63211;48.548;2.704;2023-05-10T08:53:05;100673.31;;;18.35;64.18
74680;BME280;63211;48.548;2.704;2023-05-10T08:55:33;100672.09;;;18.31;64.23
74680;BME280;63211;48.548;2.704;2023-05-10T08:58:02;100676.69;;;18.30;64.28
74680;BME280;63211;48.548;2.704;2023-05-10T09:00:28;100672.31;;;18.29;64.15
74680;BME280;63211;48.548;2.704;2023-05-10T09:02:57;100685.66;;;18.37;63.94
74680;BME280;63211;48.548;2.704;2023-05-10T09:05:24;100647.31;;;18.14;63.83
74680;BME280;63211;48.548;2.704;2023-05-10T09:07:50;100679.38;;;18.37;64.08
74680;BME280;63211;48.548;2.704;2023-05-10T09:10:18;100679.38;;;18.37;63.96
74680;BME280;63211;48.548;2.704;2023-05-10T09:12:46;100686.50;;;18.38;63.85
74680;BME280;63211;48.548;2.704;2023-05-10T09:15:15;100689.22;;;18.38;64.03
74680;BME280;63211;48.548;2.704;2023-05-10T09:17:42;100694.06;;;18.36;63.91
74680;BME280;63211;48.548;2.704;2023-05-10T09:20:10;100693.00;;;18.37;63.77
74680;BME280;63211;48.548;2.704;2023-05-10T09:22:36;100696.56;;;18.37;63.83
74680;BME280;63211;48.548;2.704;2023-05-10T09:25:05;100695.94;;;18.35;63.74
74680;BME280;63211;48.548;2.704;2023-05-10T09:27:32;100698.91;;;18.34;63.57
74680;BME280;63211;48.548;2.704;2023-05-10T09:30:00;100697.22;;;18.33;63.83
74680;BME280;63211;48.548;2.704;2023-05-10T09:32:36;100710.03;;;18.32;63.93
74680;BME280;63211;48.548;2.704;2023-05-10T09:35:09;100708.13;;;18.33;63.98
74680;BME280;63211;48.548;2.704;2023-05-10T09:37:35;100706.47;;;18.32;64.02
74680;BME280;63211;48.548;2.704;2023-05-10T09:40:06;100698.97;;;18.27;63.92
74680;BME280;63211;48.548;2.704;2023-05-10T09:42:34;100720.09;;;18.32;63.85
74680;BME280;63211;48.548;2.704;2023-05-10T09:45:03;100714.41;;;18.33;64.00
74680;BME280;63211;48.548;2.704;2023-05-10T09:47:32;100717.13;;;18.33;63.44
74680;BME280;63211;48.548;2.704;2023-05-10T09:49:59;100719.88;;;18.33;63.56
74680;BME280;63211;48.548;2.704;2023-05-10T09:52:29;100715.69;;;18.31;63.68
74680;BME280;63211;48.548;2.704;2023-05-10T09:54:56;100719.94;;;18.27;63.39
74680;BME280;63211;48.548;2.704;2023-05-10T09:57:24;100717.97;;;18.34;63.80
74680;BME280;63211;48.548;2.704;2023-05-10T09:59:51;100731.81;;;18.32;63.77
74680;BME280;63211;48.548;2.704;2023-05-10T10:02:20;100733.28;;;18.35;64.26
74680;BME280;63211;48.548;2.704;2023-05-10T10:04:49;100730.94;;;18.38;63.96
74680;BME280;63211;48.548;2.704;2023-05-10T10:07:22;100744.97;;;18.42;63.83
74680;BME280;63211;48.548;2.704;2023-05-10T10:09:50;100725.75;;;18.30;64.22
74680;BME280;63211;48.548;2.704;2023-05-10T10:12:16;100739.78;;;18.34;64.54
74680;BME280;63211;48.548;2.704;2023-05-10T10:14:45;100748.41;;;18.31;64.73
74680;BME280;63211;48.548;2.704;2023-05-10T10:17:12;100737.72;;;18.29;64.60
74680;BME280;63211;48.548;2.704;2023-05-10T10:19:41;100739.91;;;18.20;64.75
74680;BME280;63211;48.548;2.704;2023-05-10T10:22:08;100743.03;;;18.24;64.58
74680;BME280;63211;48.548;2.704;2023-05-10T10:24:36;100751.22;;;18.24;64.63
74680;BME280;63211;48.548;2.704;2023-05-10T10:27:10;100744.31;;;18.22;64.74
74680;BME280;63211;48.548;2.704;2023-05-10T10:29:47;100750.81;;;18.20;64.82
74680;BME280;63211;48.548;2.704;2023-05-10T10:32:23;100752.69;;;18.20;64.60
74680;BME280;63211;48.548;2.704;2023-05-10T10:34:54;100749.16;;;18.19;64.59
74680;BME280;63211;48.548;2.704;2023-05-10T10:37:21;100753.38;;;18.15;64.55
74680;BME280;63211;48.548;2.704;2023-05-10T10:39:48;100753.81;;;18.12;64.67
74680;BME280;63211;48.548;2.704;2023-05-10T10:42:43;100755.25;;;18.15;64.81
74680;BME280;63211;48.548;2.704;2023-05-10T10:45:13;100754.50;;;18.08;64.82
74680;BME280;63211;48.548;2.704;2023-05-10T10:47:40;100761.75;;;18.14;64.59
74680;BME280;63211;48.548;2.704;2023-05-10T10:50:09;100755.56;;;18.07;64.94
74680;BME280;63211;48.548;2.704;2023-05-10T10:52:38;100760.75;;;18.08;64.62
74680;BME280;63211;48.548;2.704;2023-05-10T10:55:06;100761.38;;;18.10;64.73
74680;BME280;63211;48.548;2.704;2023-05-10T10:57:42;100747.00;;;18.03;64.75
74680;BME280;63211;48.548;2.704;2023-05-10T11:00:35;100754.50;;;18.08;64.49
74680;BME280;63211;48.548;2.704;2023-05-10T11:03:04;100759.13;;;18.07;64.62
74680;BME280;63211;48.548;2.704;2023-05-10T11:05:41;100752.34;;;18.10;64.71
74680;BME280;63211;48.548;2.704;2023-05-10T11:08:15;100716.06;;;17.91;64.64
74680;BME280;63211;48.548;2.704;2023-05-10T11:10:51;100736.53;;;18.00;64.50
74680;BME280;63211;48.548;2.704;2023-05-10T11:13:27;100744.03;;;18.05;64.84
74680;BME280;63211;48.548;2.704;2023-05-10T11:15:54;100741.31;;;18.05;64.86
74680;BME280;63211;48.548;2.704;2023-05-10T11:18:24;100743.66;;;18.01;65.28
74680;BME280;63211;48.548;2.704;2023-05-10T11:20:55;100753.28;;;18.04;64.79
74680;BME280;63211;48.548;2.704;2023-05-10T11:23:21;100749.50;;;18.05;64.74
74680;BME280;63211;48.548;2.704;2023-05-10T11:25:49;100751.38;;;18.04;65.18
74680;BME280;63211;48.548;2.704;2023-05-10T11:28:17;100749.50;;;18.05;65.06
74680;BME280;63211;48.548;2.704;2023-05-10T11:30:44;100748.25;;;18.01;64.98
74680;BME280;63211;48.548;2.704;2023-05-10T11:33:15;100756.44;;;18.01;64.74
74680;BME280;63211;48.548;2.704;2023-05-10T11:35:43;100741.97;;;18.00;64.97
74680;BME280;63211;48.548;2.704;2023-05-10T11:38:12;100742.84;;;17.94;65.28
74680;BME280;63211;48.548;2.704;2023-05-10T11:40:40;100754.16;;;17.98;65.29
74680;BME280;63211;48.548;2.704;2023-05-10T11:43:08;100751.81;;;18.01;65.38
74680;BME280;63211;48.548;2.704;2023-05-10T11:45:35;100752.03;;;18.00;65.05
74680;BME280;63211;48.548;2.704;2023-05-10T11:48:02;100747.25;;;17.95;65.50
74680;BME280;63211;48.548;2.704;2023-05-10T11:50:29;100757.50;;;18.00;65.44
74680;BME280;63211;48.548;2.704;2023-05-10T11:52:56;100724.13;;;17.79;65.09
74680;BME280;63211;48.548;2.704;2023-05-10T11:55:25;100749.53;;;17.98;65.47
74680;BME280;63211;48.548;2.704;2023-05-10T11:57:52;100739.06;;;17.95;64.91
74680;BME280;63211;48.548;2.704;2023-05-10T12:00:18;100745.75;;;17.99;65.57
74680;BME280;63211;48.548;2.704;2023-05-10T12:02:45;100754.16;;;17.98;65.34
74680;BME280;63211;48.548;2.704;2023-05-10T12:05:13;100747.66;;;17.99;65.42
74680;BME280;63211;48.548;2.704;2023-05-10T12:07:39;100734.28;;;17.91;65.20
74680;BME280;63211;48.548;2.704;2023-05-10T12:10:07;100745.97;;;17.98;65.34
74680;BME280;63211;48.548;2.704;2023-05-10T12:12:43;100753.31;;;17.97;65.08
74680;BME280;63211;48.548;2.704;2023-05-10T12:15:11;100752.06;;;17.93;65.38
74680;BME280;63211;48.548;2.704;2023-05-10T12:17:38;100710.38;;;17.68;65.42
74680;BME280;63211;48.548;2.704;2023-05-10T12:20:16;100744.31;;;17.97;65.54
74680;BME280;63211;48.548;2.704;2023-05-10T12:22:47;100703.88;;;17.69;65.59
74680;BME280;63211;48.548;2.704;2023-05-10T12:25:14;100742.84;;;17.94;65.68
74680;BME280;63211;48.548;2.704;2023-05-10T12:27:47;100741.81;;;17.95;65.71
74680;BME280;63211;48.548;2.704;2023-05-10T12:30:19;100721.09;;;17.88;65.35
74680;BME280;63211;48.548;2.704;2023-05-10T12:32:46;100716.13;;;17.84;65.28
74680;BME280;63211;48.548;2.704;2023-05-10T12:35:13;100734.47;;;17.96;65.73
74680;BME280;63211;48.548;2.704;2023-05-10T12:37:40;100734.69;;;17.94;65.72
74680;BME280;63211;48.548;2.704;2023-05-10T12:40:08;100732.19;;;17.93;65.63
74680;BME280;63211;48.548;2.704;2023-05-10T12:42:36;100703.56;;;17.83;65.58
74680;BME280;63211;48.548;2.704;2023-05-10T12:45:06;100690.47;;;17.67;65.58
74680;BME280;63211;48.548;2.704;2023-05-10T12:47:34;100712.13;;;17.87;65.68
74680;BME280;63211;48.548;2.704;2023-05-10T12:50:01;100726.50;;;17.94;66.05
74680;BME280;63211;48.548;2.704;2023-05-10T12:52:29;100719.41;;;17.93;65.37
74680;BME280;63211;48.548;2.704;2023-05-10T12:54:57;100707.50;;;17.88;65.51
74680;BME280;63211;48.548;2.704;2023-05-10T12:57:24;100706.22;;;17.90;65.85
74680;BME280;63211;48.548;2.704;2023-05-10T12:59:51;100598.06;;;17.23;65.53